createdAt,value
2018-08-13T00:00:42.308Z,0.00
2018-08-13T00:01:42.308Z,0.00
2018-08-13T00:02:42.312Z,0.00
2018-08-13T00:03:42.313Z,0.00
2018-08-13T00:04:42.315Z,0.00
2018-08-13T00:05:42.320Z,0.00
2018-08-13T00:06:42.319Z,0.00
2018-08-13T00:07:42.321Z,0.00
2018-08-13T00:08:42.324Z,0.00
2018-08-13T00:09:42.326Z,0.00
2018-08-13T00:10:42.329Z,0.00
2018-08-13T00:11:42.334Z,0.00
2018-08-13T00:12:42.333Z,0.00
2018-08-13T00:13:42.334Z,0.00
2018-08-13T00:14:42.338Z,0.00
2018-08-13T00:15:42.340Z,0.00
2018-08-13T00:16:42.344Z,0.00
2018-08-13T00:17:42.427Z,0.00
2018-08-13T00:18:42.345Z,0.00
2018-08-13T00:19:42.350Z,0.00
2018-08-13T00:20:42.350Z,0.00
2018-08-13T00:21:42.353Z,0.00
2018-08-13T00:22:42.354Z,0.00
2018-08-13T00:23:42.358Z,0.00
2018-08-13T00:24:42.360Z,0.00
2018-08-13T00:25:42.360Z,0.00
2018-08-13T00:26:42.364Z,0.00
2018-08-13T00:27:42.366Z,0.00
2018-08-13T00:28:42.368Z,0.00
2018-08-13T00:29:42.370Z,0.00
2018-08-13T00:30:42.372Z,0.00
2018-08-13T00:31:42.374Z,0.00
2018-08-13T00:32:42.377Z,0.00
2018-08-13T00:33:42.378Z,0.00
2018-08-13T00:34:42.381Z,0.00
2018-08-13T00:35:42.382Z,0.00
2018-08-13T00:36:42.387Z,0.00
2018-08-13T00:37:42.387Z,0.00
2018-08-13T00:38:42.391Z,0.00
2018-08-13T00:39:42.393Z,0.00
2018-08-13T00:40:42.396Z,0.00
2018-08-13T00:41:42.396Z,0.00
2018-08-13T00:42:42.399Z,0.00
2018-08-13T00:43:42.401Z,0.00
2018-08-13T00:44:42.403Z,0.00
2018-08-13T00:45:42.405Z,0.00
2018-08-13T00:46:42.407Z,0.00
2018-08-13T00:47:42.410Z,0.00
2018-08-13T00:48:42.412Z,0.00
2018-08-13T00:49:42.417Z,0.00
2018-08-13T00:50:42.416Z,0.00
2018-08-13T00:51:42.419Z,0.00
2018-08-13T00:52:42.421Z,0.00
2018-08-13T00:53:42.423Z,0.00
2018-08-13T00:54:42.424Z,0.00
2018-08-13T00:55:42.428Z,0.00
2018-08-13T00:56:42.432Z,0.00
2018-08-13T00:57:42.432Z,0.00
2018-08-13T00:58:42.433Z,0.00
2018-08-13T00:59:42.436Z,0.00
2018-08-13T01:00:42.446Z,0.00
2018-08-13T01:01:42.442Z,0.00
2018-08-13T01:02:42.444Z,0.00
2018-08-13T01:03:42.447Z,0.00
2018-08-13T01:04:42.447Z,0.00
2018-08-13T01:05:42.449Z,0.00
2018-08-13T01:06:42.451Z,0.00
2018-08-13T01:07:42.455Z,0.00
2018-08-13T01:08:42.457Z,0.00
2018-08-13T01:09:42.457Z,0.00
2018-08-13T01:10:42.461Z,0.00
2018-08-13T01:11:42.463Z,0.00
2018-08-13T01:12:42.465Z,0.00
2018-08-13T01:13:42.467Z,0.00
2018-08-13T01:14:42.471Z,0.00
2018-08-13T01:15:42.472Z,0.00
2018-08-13T01:16:42.475Z,0.00
2018-08-13T01:17:42.475Z,0.00
2018-08-13T01:18:42.480Z,0.00
2018-08-13T01:19:42.486Z,0.00
2018-08-13T01:20:42.484Z,0.00
2018-08-13T01:21:42.487Z,0.00
2018-08-13T01:22:42.490Z,0.00
2018-08-13T01:23:42.491Z,0.00
2018-08-13T01:24:42.496Z,0.00
2018-08-13T01:25:42.493Z,0.00
2018-08-13T01:26:42.496Z,0.00
2018-08-13T01:27:42.499Z,0.00
2018-08-13T01:28:42.502Z,0.00
2018-08-13T01:29:42.503Z,0.00
2018-08-13T01:30:42.506Z,0.00
2018-08-13T01:31:42.507Z,0.00
2018-08-13T01:32:42.510Z,0.00
2018-08-13T01:33:42.512Z,0.00
2018-08-13T01:34:42.515Z,0.00
2018-08-13T01:35:42.516Z,0.00
2018-08-13T01:36:42.518Z,0.00
2018-08-13T01:37:42.521Z,0.00
2018-08-13T01:38:42.523Z,0.00
2018-08-13T01:39:42.528Z,0.00
2018-08-13T01:40:42.528Z,0.00
2018-08-13T01:41:42.531Z,0.00
2018-08-13T01:42:42.533Z,0.00
2018-08-13T01:43:42.536Z,0.00
2018-08-13T01:44:42.537Z,0.00
2018-08-13T01:45:42.538Z,0.00
2018-08-13T01:46:42.541Z,0.00
2018-08-13T01:47:42.544Z,0.00
2018-08-13T01:48:42.546Z,0.00
2018-08-13T01:49:42.548Z,0.00
2018-08-13T01:50:42.552Z,0.00
2018-08-13T01:51:42.552Z,0.00
2018-08-13T01:52:42.555Z,0.00
2018-08-13T01:53:42.556Z,0.00
2018-08-13T01:54:42.563Z,0.00
2018-08-13T01:55:42.562Z,0.00
2018-08-13T01:56:42.565Z,0.00
2018-08-13T01:57:42.568Z,0.00
2018-08-13T01:58:42.569Z,0.00
2018-08-13T01:59:42.571Z,0.00
2018-08-13T02:00:42.573Z,0.00
2018-08-13T02:01:42.624Z,0.00
2018-08-13T02:02:42.577Z,0.00
2018-08-13T02:03:42.579Z,0.00
2018-08-13T02:04:42.585Z,0.00
2018-08-13T02:05:42.583Z,0.00
2018-08-13T02:06:42.588Z,0.00
2018-08-13T02:07:42.589Z,0.00
2018-08-13T02:08:42.591Z,0.00
2018-08-13T02:09:42.594Z,0.00
2018-08-13T02:10:42.596Z,0.00
2018-08-13T02:11:42.597Z,0.00
2018-08-13T02:12:42.600Z,0.00
2018-08-13T02:13:42.605Z,0.00
2018-08-13T02:14:42.608Z,0.00
2018-08-13T02:15:42.614Z,0.00
2018-08-13T02:16:42.610Z,0.00
2018-08-13T02:17:42.612Z,0.00
2018-08-13T02:18:42.613Z,0.00
2018-08-13T02:19:42.617Z,0.00
2018-08-13T02:20:42.618Z,0.00
2018-08-13T02:21:42.621Z,0.00
2018-08-13T02:22:42.623Z,0.00
2018-08-13T02:23:42.625Z,0.00
2018-08-13T02:24:42.628Z,0.00
2018-08-13T02:25:42.629Z,0.00
2018-08-13T02:26:42.633Z,0.00
2018-08-13T02:27:42.639Z,0.00
2018-08-13T02:28:42.637Z,0.00
2018-08-13T02:29:42.638Z,0.00
2018-08-13T02:30:42.642Z,0.00
2018-08-13T02:31:42.644Z,0.00
2018-08-13T02:32:42.648Z,0.00
2018-08-13T02:33:42.648Z,0.00
2018-08-13T02:34:42.652Z,0.00
2018-08-13T02:35:42.652Z,0.00
2018-08-13T02:36:42.657Z,0.00
2018-08-13T02:37:42.657Z,0.00
2018-08-13T02:38:42.661Z,0.00
2018-08-13T02:39:42.664Z,0.00
2018-08-13T02:40:42.665Z,0.00
2018-08-13T02:41:42.668Z,0.00
2018-08-13T02:42:42.670Z,0.00
2018-08-13T02:43:42.673Z,0.00
2018-08-13T02:44:42.678Z,0.00
2018-08-13T02:45:42.678Z,0.00
2018-08-13T02:46:42.679Z,0.00
2018-08-13T02:47:42.682Z,0.00
2018-08-13T02:48:42.684Z,0.00
2018-08-13T02:49:42.686Z,0.00
2018-08-13T02:50:42.690Z,0.00
2018-08-13T02:51:42.691Z,0.00
2018-08-13T02:52:42.693Z,0.00
2018-08-13T02:53:42.698Z,0.00
2018-08-13T02:54:42.699Z,0.00
2018-08-13T02:55:42.700Z,0.00
2018-08-13T02:56:42.703Z,0.00
2018-08-13T02:57:42.705Z,0.00
2018-08-13T02:58:42.708Z,0.00
2018-08-13T02:59:42.711Z,0.00
2018-08-13T03:00:42.714Z,0.00
2018-08-13T03:01:42.714Z,0.00
2018-08-13T03:02:42.718Z,0.00
2018-08-13T03:03:42.721Z,0.00
2018-08-13T03:04:42.740Z,0.00
2018-08-13T03:05:42.724Z,0.00
2018-08-13T03:06:42.739Z,0.00
2018-08-13T03:07:42.729Z,0.00
2018-08-13T03:08:42.734Z,0.00
2018-08-13T03:09:42.735Z,0.00
2018-08-13T03:10:42.736Z,0.00
2018-08-13T03:11:42.739Z,0.00
2018-08-13T03:12:42.746Z,0.00
2018-08-13T03:13:42.745Z,0.00
2018-08-13T03:14:42.751Z,0.00
2018-08-13T03:15:42.749Z,0.00
2018-08-13T03:16:42.751Z,0.00
2018-08-13T03:17:42.756Z,0.00
2018-08-13T03:18:42.802Z,0.00
2018-08-13T03:19:42.760Z,0.00
2018-08-13T03:20:42.761Z,0.00
2018-08-13T03:21:42.763Z,0.00
2018-08-13T03:22:42.766Z,0.00
2018-08-13T03:23:42.769Z,0.00
2018-08-13T03:24:42.771Z,0.00
2018-08-13T03:25:42.773Z,0.00
2018-08-13T03:26:42.781Z,0.00
2018-08-13T03:27:42.779Z,0.00
2018-08-13T03:28:42.782Z,0.00
2018-08-13T03:29:42.783Z,0.00
2018-08-13T03:30:42.786Z,0.00
2018-08-13T03:31:42.788Z,0.00
2018-08-13T03:32:42.792Z,0.00
2018-08-13T03:33:42.792Z,0.00
2018-08-13T03:34:42.796Z,0.00
2018-08-13T03:35:42.798Z,0.00
2018-08-13T03:36:42.801Z,0.00
2018-08-13T03:37:42.801Z,0.00
2018-08-13T03:38:42.806Z,0.00
2018-08-13T03:39:42.809Z,0.00
2018-08-13T03:40:42.810Z,0.00
2018-08-13T03:41:42.813Z,0.00
2018-08-13T03:42:42.814Z,0.00
2018-08-13T03:43:42.822Z,0.00
2018-08-13T03:44:42.821Z,0.00
2018-08-13T03:45:42.822Z,4.00
2018-08-13T03:46:42.826Z,4.00
2018-08-13T03:47:42.828Z,0.00
2018-08-13T03:48:42.832Z,0.00
2018-08-13T03:49:42.834Z,4.00
2018-08-13T03:50:42.837Z,4.00
2018-08-13T03:51:42.838Z,4.00
2018-08-13T03:52:42.842Z,4.00
2018-08-13T03:53:42.915Z,4.00
2018-08-13T03:54:42.847Z,8.00
2018-08-13T03:55:42.848Z,8.00
2018-08-13T03:56:42.855Z,8.00
2018-08-13T03:57:42.856Z,8.00
2018-08-13T03:58:42.856Z,12.00
2018-08-13T03:59:42.860Z,16.00
2018-08-13T04:00:42.862Z,20.00
2018-08-13T04:01:42.867Z,24.00
2018-08-13T04:02:42.867Z,24.00
2018-08-13T04:03:42.870Z,28.00
2018-08-13T04:04:42.872Z,36.00
2018-08-13T04:05:42.875Z,40.00
2018-08-13T04:06:42.877Z,44.00
2018-08-13T04:07:42.880Z,48.00
2018-08-13T04:08:42.883Z,48.00
2018-08-13T04:09:42.885Z,44.00
2018-08-13T04:10:42.888Z,48.00
2018-08-13T04:11:42.893Z,48.00
2018-08-13T04:12:42.911Z,48.00
2018-08-13T04:13:42.897Z,44.00
2018-08-13T04:14:42.898Z,44.00
2018-08-13T04:15:42.900Z,48.00
2018-08-13T04:16:42.904Z,48.00
2018-08-13T04:17:42.906Z,48.00
2018-08-13T04:18:42.911Z,52.00
2018-08-13T04:19:42.912Z,52.00
2018-08-13T04:20:42.914Z,60.00
2018-08-13T04:21:42.916Z,60.00
2018-08-13T04:22:42.920Z,60.00
2018-08-13T04:23:42.923Z,60.00
2018-08-13T04:24:42.925Z,60.00
2018-08-13T04:25:42.928Z,60.00
2018-08-13T04:26:42.929Z,60.00
2018-08-13T04:27:42.934Z,60.00
2018-08-13T04:28:42.935Z,68.00
2018-08-13T04:29:42.938Z,76.00
2018-08-13T04:30:42.940Z,84.00
2018-08-13T04:31:42.943Z,100.00
2018-08-13T04:32:42.984Z,112.00
2018-08-13T04:33:42.948Z,132.00
2018-08-13T04:34:42.953Z,148.00
2018-08-13T04:35:42.954Z,160.00
2018-08-13T04:36:42.957Z,160.00
2018-08-13T04:37:42.959Z,160.00
2018-08-13T04:38:43.041Z,156.00
2018-08-13T04:39:42.976Z,156.00
2018-08-13T04:40:42.968Z,152.00
2018-08-13T04:41:42.970Z,144.00
2018-08-13T04:42:42.973Z,144.00
2018-08-13T04:43:42.977Z,152.00
2018-08-13T04:44:42.979Z,160.00
2018-08-13T04:45:42.983Z,152.00
2018-08-13T04:46:42.986Z,144.00
2018-08-13T04:47:42.989Z,148.00
2018-08-13T04:48:42.992Z,164.00
2018-08-13T04:49:42.995Z,180.00
2018-08-13T04:50:42.998Z,200.00
2018-08-13T04:51:43.000Z,212.00
2018-08-13T04:52:43.004Z,224.00
2018-08-13T04:53:43.004Z,248.00
2018-08-13T04:54:43.008Z,272.00
2018-08-13T04:55:43.012Z,284.00
2018-08-13T04:56:43.014Z,292.00
2018-08-13T04:57:43.016Z,316.00
2018-08-13T04:58:43.019Z,356.00
2018-08-13T04:59:43.022Z,400.00
2018-08-13T05:00:43.028Z,460.00
2018-08-13T05:01:43.027Z,524.00
2018-08-13T05:02:43.029Z,564.00
2018-08-13T05:03:43.033Z,592.00
2018-08-13T05:04:43.035Z,616.00
2018-08-13T05:05:43.038Z,644.00
2018-08-13T05:06:43.042Z,664.00
2018-08-13T05:07:43.045Z,680.00
2018-08-13T05:08:43.048Z,704.00
2018-08-13T05:09:43.049Z,724.00
2018-08-13T05:10:43.053Z,748.00
2018-08-13T05:11:43.057Z,768.00
2018-08-13T05:12:43.060Z,788.00
2018-08-13T05:13:43.060Z,800.00
2018-08-13T05:14:43.064Z,812.00
2018-08-13T05:15:43.070Z,820.00
2018-08-13T05:16:43.069Z,844.00
2018-08-13T05:17:43.072Z,892.00
2018-08-13T05:18:43.074Z,964.00
2018-08-13T05:19:43.079Z,1036.00
2018-08-13T05:20:43.081Z,1100.00
2018-08-13T05:21:43.083Z,1144.00
2018-08-13T05:22:43.087Z,1164.00
2018-08-13T05:23:43.091Z,1160.00
2018-08-13T05:24:43.093Z,1176.00
2018-08-13T05:25:43.095Z,1208.00
2018-08-13T05:26:43.099Z,1252.00
2018-08-13T05:27:43.101Z,1308.00
2018-08-13T05:28:43.105Z,1376.00
2018-08-13T05:29:43.108Z,1432.00
2018-08-13T05:30:43.120Z,1496.00
2018-08-13T05:31:43.116Z,1552.00
2018-08-13T05:32:43.117Z,1572.00
2018-08-13T05:33:43.121Z,1564.00
2018-08-13T05:34:43.122Z,1524.00
2018-08-13T05:35:43.127Z,1496.00
2018-08-13T05:36:43.130Z,1492.00
2018-08-13T05:37:43.131Z,1476.00
2018-08-13T05:38:43.136Z,1456.00
2018-08-13T05:39:43.138Z,1408.00
2018-08-13T05:40:43.143Z,1328.00
2018-08-13T05:41:43.143Z,1220.00
2018-08-13T05:42:43.147Z,1116.00
2018-08-13T05:43:43.154Z,1040.00
2018-08-13T05:44:43.154Z,976.00
2018-08-13T05:45:43.161Z,908.00
2018-08-13T05:46:43.159Z,852.00
2018-08-13T05:47:43.163Z,800.00
2018-08-13T05:48:43.167Z,764.00
2018-08-13T05:49:43.169Z,756.00
2018-08-13T05:50:43.173Z,764.00
2018-08-13T05:51:43.177Z,776.00
2018-08-13T05:52:43.182Z,788.00
2018-08-13T05:53:43.182Z,792.00
2018-08-13T05:54:43.186Z,796.00
2018-08-13T05:55:43.189Z,792.00
2018-08-13T05:56:43.191Z,804.00
2018-08-13T05:57:43.196Z,820.00
2018-08-13T05:58:43.198Z,848.00
2018-08-13T05:59:43.201Z,880.00
2018-08-13T06:00:43.204Z,908.00
2018-08-13T06:01:43.208Z,928.00
2018-08-13T06:02:43.211Z,948.00
2018-08-13T06:03:43.213Z,968.00
2018-08-13T06:04:43.218Z,1008.00
2018-08-13T06:05:43.219Z,1048.00
2018-08-13T06:06:43.224Z,1104.00
2018-08-13T06:07:43.227Z,1164.00
2018-08-13T06:08:43.229Z,1244.00
2018-08-13T06:09:43.232Z,1340.00
2018-08-13T06:10:43.235Z,1428.00
2018-08-13T06:11:43.347Z,1512.00
2018-08-13T06:12:43.241Z,1572.00
2018-08-13T06:13:43.245Z,1616.00
2018-08-13T06:14:43.247Z,1652.00
2018-08-13T06:15:43.250Z,1700.00
2018-08-13T06:16:43.253Z,1772.00
2018-08-13T06:17:43.256Z,1888.00
2018-08-13T06:18:43.260Z,2028.00
2018-08-13T06:19:43.262Z,2180.00
2018-08-13T06:20:43.267Z,2316.00
2018-08-13T06:21:43.268Z,2372.00
2018-08-13T06:22:43.277Z,2276.00
2018-08-13T06:23:43.274Z,2192.00
2018-08-13T06:24:43.278Z,2180.00
2018-08-13T06:25:43.279Z,2212.00
2018-08-13T06:26:43.282Z,2236.00
2018-08-13T06:27:43.287Z,2244.00
2018-08-13T06:28:43.288Z,2216.00
2018-08-13T06:29:43.291Z,2188.00
2018-08-13T06:30:43.294Z,2180.00
2018-08-13T06:31:43.297Z,2180.00
2018-08-13T06:32:43.300Z,2168.00
2018-08-13T06:33:43.301Z,2176.00
2018-08-13T06:34:43.307Z,2204.00
2018-08-13T06:35:43.308Z,2164.00
2018-08-13T06:36:43.312Z,2052.00
2018-08-13T06:37:43.318Z,1848.00
2018-08-13T06:38:43.318Z,1584.00
2018-08-13T06:39:43.323Z,1348.00
2018-08-13T06:40:43.323Z,1160.00
2018-08-13T06:41:43.327Z,1032.00
2018-08-13T06:42:43.329Z,924.00
2018-08-13T06:43:43.332Z,816.00
2018-08-13T06:44:43.336Z,736.00
2018-08-13T06:45:43.338Z,692.00
2018-08-13T06:46:43.341Z,700.00
2018-08-13T06:47:43.343Z,756.00
2018-08-13T06:48:43.348Z,864.00
2018-08-13T06:49:43.348Z,980.00
2018-08-13T06:50:43.353Z,1088.00
2018-08-13T06:51:43.358Z,1216.00
2018-08-13T06:52:43.359Z,1348.00
2018-08-13T06:53:43.360Z,1452.00
2018-08-13T06:54:43.364Z,1520.00
2018-08-13T06:55:43.368Z,1536.00
2018-08-13T06:56:43.371Z,1508.00
2018-08-13T06:57:43.372Z,1520.00
2018-08-13T06:58:43.375Z,1620.00
2018-08-13T06:59:43.379Z,1768.00
2018-08-13T07:00:43.388Z,1920.00
2018-08-13T07:01:43.383Z,2016.00
2018-08-13T07:02:43.386Z,2132.00
2018-08-13T07:03:43.389Z,2372.00
2018-08-13T07:04:43.392Z,2676.00
2018-08-13T07:05:43.395Z,2928.00
2018-08-13T07:06:43.398Z,3116.00
2018-08-13T07:07:43.400Z,3200.00
2018-08-13T07:08:43.404Z,3200.00
2018-08-13T07:09:43.406Z,3220.00
2018-08-13T07:10:43.409Z,3196.00
2018-08-13T07:11:43.411Z,3156.00
2018-08-13T07:12:43.416Z,3148.00
2018-08-13T07:13:43.417Z,3188.00
2018-08-13T07:14:43.420Z,3264.00
2018-08-13T07:15:43.480Z,3268.00
2018-08-13T07:16:43.427Z,3256.00
2018-08-13T07:17:43.429Z,3216.00
2018-08-13T07:18:43.431Z,3136.00
2018-08-13T07:19:43.435Z,3016.00
2018-08-13T07:20:43.439Z,2896.00
2018-08-13T07:21:43.440Z,2852.00
2018-08-13T07:22:43.443Z,2856.00
2018-08-13T07:23:43.446Z,2844.00
2018-08-13T07:24:43.450Z,2860.00
2018-08-13T07:25:43.456Z,2880.00
2018-08-13T07:26:43.454Z,2872.00
2018-08-13T07:27:43.465Z,2916.00
2018-08-13T07:28:43.461Z,3084.00
2018-08-13T07:29:43.464Z,3340.00
2018-08-13T07:30:43.466Z,3656.00
2018-08-13T07:31:43.470Z,3964.00
2018-08-13T07:32:43.473Z,4296.00
2018-08-13T07:33:43.521Z,4664.00
2018-08-13T07:34:43.482Z,5228.00
2018-08-13T07:35:43.481Z,5640.00
2018-08-13T07:36:43.491Z,5832.00
2018-08-13T07:37:43.487Z,5992.00
2018-08-13T07:38:43.489Z,6344.00
2018-08-13T07:39:43.494Z,7140.00
2018-08-13T07:40:43.498Z,8052.00
2018-08-13T07:41:43.499Z,8848.00
2018-08-13T07:42:43.506Z,9224.00
2018-08-13T07:43:43.507Z,9172.00
2018-08-13T07:44:43.509Z,9192.00
2018-08-13T07:45:43.590Z,9468.00
2018-08-13T07:46:43.515Z,10128.00
2018-08-13T07:47:43.518Z,10876.00
2018-08-13T07:48:43.523Z,11596.00
2018-08-13T07:49:43.532Z,11996.00
2018-08-13T07:50:43.533Z,12292.00
2018-08-13T07:51:43.620Z,12536.00
2018-08-13T07:52:43.537Z,12728.00
2018-08-13T07:53:43.541Z,12616.00
2018-08-13T07:54:43.547Z,12408.00
2018-08-13T07:55:43.548Z,12324.00
2018-08-13T07:56:43.553Z,12012.00
2018-08-13T07:57:43.556Z,11512.00
2018-08-13T07:58:43.560Z,11004.00
2018-08-13T07:59:43.565Z,10720.00
2018-08-13T08:00:43.573Z,10568.00
2018-08-13T08:01:43.573Z,10528.00
2018-08-13T08:02:43.576Z,10480.00
2018-08-13T08:03:43.580Z,10224.00
2018-08-13T08:04:43.587Z,10040.00
2018-08-13T08:05:43.589Z,9644.00
2018-08-13T08:06:43.596Z,9260.00
2018-08-13T08:07:43.599Z,9128.00
2018-08-13T08:08:43.602Z,9316.00
2018-08-13T08:09:43.608Z,9276.00
2018-08-13T08:10:43.612Z,10820.00
2018-08-13T08:11:43.617Z,11380.00
2018-08-13T08:12:43.624Z,11304.00
2018-08-13T08:13:43.625Z,11652.00
2018-08-13T08:14:43.655Z,11216.00
2018-08-13T08:15:43.635Z,10864.00
2018-08-13T08:16:43.641Z,10340.00
2018-08-13T08:17:43.644Z,8992.00
2018-08-13T08:18:43.649Z,8420.00
2018-08-13T08:19:43.655Z,8872.00
2018-08-13T08:20:43.660Z,8840.00
2018-08-13T08:21:43.665Z,9428.00
2018-08-13T08:22:43.670Z,9164.00
2018-08-13T08:23:43.674Z,8468.00
2018-08-13T08:24:43.679Z,7680.00
2018-08-13T08:25:43.683Z,7256.00
2018-08-13T08:26:43.688Z,6940.00
2018-08-13T08:27:43.694Z,6664.00
2018-08-13T08:28:43.700Z,6408.00
2018-08-13T08:29:43.703Z,6128.00
2018-08-13T08:30:43.708Z,5884.00
2018-08-13T08:31:43.715Z,5820.00
2018-08-13T08:32:43.719Z,5920.00
2018-08-13T08:33:43.723Z,6060.00
2018-08-13T08:34:43.732Z,6104.00
2018-08-13T08:35:43.734Z,5972.00
2018-08-13T08:36:43.738Z,5776.00
2018-08-13T08:37:43.744Z,5592.00
2018-08-13T08:38:43.749Z,5480.00
2018-08-13T08:39:43.753Z,5272.00
2018-08-13T08:40:43.768Z,4820.00
2018-08-13T08:41:43.764Z,4384.00
2018-08-13T08:42:43.768Z,3924.00
2018-08-13T08:43:43.774Z,3612.00
2018-08-13T08:44:43.779Z,3340.00
2018-08-13T08:45:43.782Z,3336.00
2018-08-13T08:46:43.787Z,3292.00
2018-08-13T08:47:43.794Z,3312.00
2018-08-13T08:48:43.798Z,3552.00
2018-08-13T08:49:43.801Z,3976.00
2018-08-13T08:50:43.808Z,4344.00
2018-08-13T08:51:43.812Z,4688.00
2018-08-13T08:52:43.874Z,4940.00
2018-08-13T08:53:43.823Z,5052.00
2018-08-13T08:54:43.830Z,4876.00
2018-08-13T08:55:43.832Z,4548.00
2018-08-13T08:56:43.836Z,4236.00
2018-08-13T08:57:43.841Z,4208.00
2018-08-13T08:58:43.845Z,4448.00
2018-08-13T08:59:43.851Z,4808.00
2018-08-13T09:00:43.868Z,5200.00
2018-08-13T09:01:43.861Z,5636.00
2018-08-13T09:02:43.865Z,6020.00
2018-08-13T09:03:43.871Z,6176.00
2018-08-13T09:04:43.873Z,6136.00
2018-08-13T09:05:43.878Z,5920.00
2018-08-13T09:06:43.887Z,5744.00
2018-08-13T09:07:43.888Z,5748.00
2018-08-13T09:08:43.894Z,5840.00
2018-08-13T09:09:43.898Z,5812.00
2018-08-13T09:10:43.902Z,5604.00
2018-08-13T09:11:43.908Z,5616.00
2018-08-13T09:12:43.912Z,5896.00
2018-08-13T09:13:43.917Z,6384.00
2018-08-13T09:14:43.922Z,6956.00
2018-08-13T09:15:43.928Z,7320.00
2018-08-13T09:16:43.932Z,7468.00
2018-08-13T09:17:43.935Z,7412.00
2018-08-13T09:18:43.942Z,7360.00
2018-08-13T09:19:43.947Z,7412.00
2018-08-13T09:20:43.951Z,7816.00
2018-08-13T09:21:43.956Z,8412.00
2018-08-13T09:22:43.962Z,8852.00
2018-08-13T09:23:43.967Z,9524.00
2018-08-13T09:24:43.973Z,9832.00
2018-08-13T09:25:43.976Z,10108.00
2018-08-13T09:26:43.981Z,10032.00
2018-08-13T09:27:43.987Z,9784.00
2018-08-13T09:28:43.993Z,9692.00
2018-08-13T09:29:43.996Z,9664.00
2018-08-13T09:30:44.001Z,9856.00
2018-08-13T09:31:44.008Z,9764.00
2018-08-13T09:32:44.012Z,9600.00
2018-08-13T09:33:44.019Z,9192.00
2018-08-13T09:34:44.024Z,8740.00
2018-08-13T09:35:44.029Z,8176.00
2018-08-13T09:36:44.059Z,7612.00
2018-08-13T09:37:44.044Z,7064.00
2018-08-13T09:38:44.044Z,6480.00
2018-08-13T09:39:44.096Z,6364.00
2018-08-13T09:40:44.056Z,6596.00
2018-08-13T09:41:44.062Z,6992.00
2018-08-13T09:42:44.066Z,7648.00
2018-08-13T09:43:44.072Z,7540.00
2018-08-13T09:44:44.078Z,7740.00
2018-08-13T09:45:44.083Z,8464.00
2018-08-13T09:46:44.088Z,8532.00
2018-08-13T09:47:44.093Z,16248.00
2018-08-13T09:48:44.099Z,12468.00
2018-08-13T09:49:44.104Z,45952.00
2018-08-13T09:50:44.109Z,47008.00
2018-08-13T09:51:44.115Z,18304.00
2018-08-13T09:52:44.124Z,30048.00
2018-08-13T09:53:44.169Z,35168.00
2018-08-13T09:54:44.133Z,14516.00
2018-08-13T09:55:44.140Z,11348.00
2018-08-13T09:56:44.149Z,11680.00
2018-08-13T09:57:44.195Z,16152.00
2018-08-13T09:58:44.160Z,15760.00
2018-08-13T09:59:44.171Z,15508.00
2018-08-13T10:00:44.177Z,18720.00
2018-08-13T10:01:44.186Z,33888.00
2018-08-13T10:02:44.191Z,32000.00
2018-08-13T10:03:44.202Z,43264.00
2018-08-13T10:04:44.207Z,34592.00
2018-08-13T10:05:44.213Z,30880.00
2018-08-13T10:06:44.222Z,18976.00
2018-08-13T10:07:44.231Z,24544.00
2018-08-13T10:08:44.241Z,19936.00
2018-08-13T10:09:44.248Z,36864.00
2018-08-13T10:10:44.285Z,35968.00
2018-08-13T10:11:44.266Z,27872.00
2018-08-13T10:12:44.276Z,17664.00
2018-08-13T10:13:44.284Z,17120.00
2018-08-13T10:14:44.338Z,32352.00
2018-08-13T10:15:44.304Z,32896.00
2018-08-13T10:16:44.317Z,25504.00
2018-08-13T10:17:44.327Z,28448.00
2018-08-13T10:18:44.335Z,23712.00
2018-08-13T10:19:44.344Z,32928.00
2018-08-13T10:20:44.360Z,14968.00
2018-08-13T10:21:44.367Z,29632.00
2018-08-13T10:22:44.381Z,35232.00
2018-08-13T10:23:44.388Z,34688.00
2018-08-13T10:24:44.400Z,32064.00
2018-08-13T10:25:44.410Z,32160.00
2018-08-13T10:26:44.421Z,33408.00
2018-08-13T10:27:44.433Z,14412.00
2018-08-13T10:28:44.443Z,10076.00
2018-08-13T10:29:44.503Z,33760.00
2018-08-13T10:30:44.470Z,32512.00
2018-08-13T10:31:44.476Z,27904.00
2018-08-13T10:32:44.489Z,36032.00
2018-08-13T10:33:44.499Z,39488.00
2018-08-13T10:34:44.512Z,38048.00
2018-08-13T10:35:44.523Z,50528.00
2018-08-13T10:36:44.534Z,18816.00
2018-08-13T10:37:44.547Z,10576.00
2018-08-13T10:38:44.558Z,8520.00
2018-08-13T10:39:44.569Z,8600.00
2018-08-13T10:40:44.582Z,8188.00
2018-08-13T10:41:44.591Z,7252.00
2018-08-13T10:42:44.604Z,6252.00
2018-08-13T10:43:44.615Z,6088.00
2018-08-13T10:44:44.652Z,5904.00
2018-08-13T10:45:44.636Z,6312.00
2018-08-13T10:46:44.645Z,8760.00
2018-08-13T10:47:44.658Z,12276.00
2018-08-13T10:48:44.667Z,11784.00
2018-08-13T10:49:44.679Z,10772.00
2018-08-13T10:50:44.688Z,9924.00
2018-08-13T10:51:44.697Z,9680.00
2018-08-13T10:52:44.707Z,10100.00
2018-08-13T10:53:44.716Z,11060.00
2018-08-13T10:54:44.727Z,11964.00
2018-08-13T10:55:44.735Z,11696.00
2018-08-13T10:56:44.744Z,11972.00
2018-08-13T10:57:44.752Z,12136.00
2018-08-13T10:58:44.764Z,11900.00
2018-08-13T10:59:44.770Z,12620.00
2018-08-13T11:00:44.781Z,14756.00
2018-08-13T11:01:44.790Z,11484.00
2018-08-13T11:02:44.822Z,11068.00
2018-08-13T11:03:44.805Z,12156.00
2018-08-13T11:04:44.815Z,11500.00
2018-08-13T11:05:44.823Z,12512.00
2018-08-13T11:06:44.833Z,14236.00
2018-08-13T11:07:44.843Z,11152.00
2018-08-13T11:08:44.849Z,9884.00
2018-08-13T11:09:44.859Z,16384.00
2018-08-13T11:10:44.866Z,14192.00
2018-08-13T11:11:44.875Z,14416.00
2018-08-13T11:12:44.925Z,15572.00
2018-08-13T11:13:44.892Z,15340.00
2018-08-13T11:14:44.900Z,14972.00
2018-08-13T11:15:44.910Z,12008.00
2018-08-13T11:16:44.919Z,15616.00
2018-08-13T11:17:44.926Z,12144.00
2018-08-13T11:18:44.935Z,13280.00
2018-08-13T11:19:44.943Z,10752.00
2018-08-13T11:20:44.951Z,9144.00
2018-08-13T11:21:44.975Z,8048.00
2018-08-13T11:22:44.970Z,8080.00
2018-08-13T11:23:44.977Z,9040.00
2018-08-13T11:24:44.987Z,9616.00
2018-08-13T11:25:44.995Z,10404.00
2018-08-13T11:26:45.008Z,9688.00
2018-08-13T11:27:45.012Z,9288.00
2018-08-13T11:28:45.119Z,9552.00
2018-08-13T11:29:45.030Z,13512.00
2018-08-13T11:30:45.036Z,12956.00
2018-08-13T11:31:45.045Z,12460.00
2018-08-13T11:32:45.053Z,11588.00
2018-08-13T11:33:45.068Z,12224.00
2018-08-13T11:34:45.075Z,9024.00
2018-08-13T11:35:45.078Z,10020.00
2018-08-13T11:36:45.085Z,10532.00
2018-08-13T11:37:45.092Z,11976.00
2018-08-13T11:38:45.100Z,10272.00
2018-08-13T11:39:45.109Z,10808.00
2018-08-13T11:40:45.137Z,12448.00
2018-08-13T11:41:45.126Z,12028.00
2018-08-13T11:42:45.133Z,10924.00
2018-08-13T11:43:45.143Z,12416.00
2018-08-13T11:44:45.155Z,12932.00
2018-08-13T11:45:45.157Z,11232.00
2018-08-13T11:46:45.166Z,12420.00
2018-08-13T11:47:45.178Z,11324.00
2018-08-13T11:48:45.184Z,8736.00
2018-08-13T11:49:45.192Z,8152.00
2018-08-13T11:50:45.199Z,7388.00
2018-08-13T11:51:45.208Z,7280.00
2018-08-13T11:52:45.217Z,8928.00
2018-08-13T11:53:45.223Z,10716.00
2018-08-13T11:54:45.232Z,12380.00
2018-08-13T11:55:45.241Z,10612.00
2018-08-13T11:56:45.249Z,10432.00
2018-08-13T11:57:45.256Z,9352.00
2018-08-13T11:58:45.265Z,9552.00
2018-08-13T11:59:45.272Z,9392.00
2018-08-13T12:00:45.282Z,8088.00
2018-08-13T12:01:45.288Z,8776.00
2018-08-13T12:02:45.299Z,12868.00
2018-08-13T12:03:45.305Z,13732.00
2018-08-13T12:04:45.314Z,13580.00
2018-08-13T12:05:45.322Z,12212.00
2018-08-13T12:06:45.330Z,11496.00
2018-08-13T12:07:45.337Z,11592.00
2018-08-13T12:08:45.347Z,11164.00
2018-08-13T12:09:45.352Z,10304.00
2018-08-13T12:10:45.363Z,9276.00
2018-08-13T12:11:45.408Z,9300.00
2018-08-13T12:12:45.378Z,9152.00
2018-08-13T12:13:45.386Z,9116.00
2018-08-13T12:14:45.394Z,10500.00
2018-08-13T12:15:45.402Z,12312.00
2018-08-13T12:16:45.410Z,8520.00
2018-08-13T12:17:45.420Z,7448.00
2018-08-13T12:18:45.426Z,6748.00
2018-08-13T12:19:45.435Z,6428.00
2018-08-13T12:20:45.444Z,6712.00
2018-08-13T12:21:45.449Z,7480.00
2018-08-13T12:22:45.458Z,8008.00
2018-08-13T12:23:45.469Z,7964.00
2018-08-13T12:24:45.474Z,6816.00
2018-08-13T12:25:45.482Z,5884.00
2018-08-13T12:26:45.490Z,5916.00
2018-08-13T12:27:45.499Z,6904.00